Gillette, WY

12:35 AM MDT on July 28, 2014 (GMT -0600)
RAWS ECHETA WY US (MECEW4) Elev 4396 ft | 44.47 °N, 105.84 °W | Change Station

Current weather conditions updated 44 minutes ago

Clear
Clear
64 °F
Feels Like 64 °F
N
5
Wind Variable Wind from SSE
Gusts 9.0 mph

Today is forecast to be Warmer than yesterday. Morning thunderstorms.

Today
High -- | Low -- °F
--% Chance of Precip.
Yesterday
High -- | Low -- °F
Precip. -- in
5:44 AM 8:32 PM
New Moon, 2% visible
Pressure 30.24 in
Visibility 10.0 miles
Clouds Clear
Dew Point 41 °F
Humidity 43%
Rainfall 0.00 in
Snow Depth Not available.
UV 0 out of 12
Pollen 6.20 out of 12
Air Quality Not available.
Flu Activity Not available.
METAR KGCC 280553Z AUTO 00000KT 10SM CLR 14/06 A3035 RMK AO2 SLP240 T01390061 10289 20128 53014 $

More Conditions Fewer Conditions

Pressure 30.24 in
Visibility 10.0 miles
Clouds Clear
Dew Point 41 °F
Humidity 43%
Rainfall 0.00 in
Snow Depth Not available.
UV 0 out of 12
Pollen 6.20 out of 12
Air Quality Not available.
Flu Activity Not available.
METAR KGCC 280553Z AUTO 00000KT 10SM CLR 14/06 A3035 RMK AO2 SLP240 T01390061 10289 20128 53014 $

More Conditions Fewer Conditions

10-Day Weather Forecast

Almanac

Astronomy

Jul. 28, 2014 Rise Set
Actual Time 5:44 AM MDT 8:32 PM MDT
Civil Twilight 5:11 AM MDT 9:06 PM MDT
Nautical Twilight 4:28 AM MDT 9:49 PM MDT
Astronomical Twilight 3:37 AM MDT 10:38 PM MDT
Moon 7:35 AM MDT 9:08 PM MDT
Length of Visible Light 15h 55m
Length of Day
14h 47m
Tomorrow will be 2m 15s shorter.
New Moon, 2% of the Moon is Illuminated
Today
New Moon
Aug 3
First Quarter
Aug 10
Full
Aug 17
Last Quarter
Aug 25
New

Today's Extremes

State Highs State Lows

Community

WunderPhotos

Upload Photos

1,738,289 photos uploaded!

Nearby

Snow Depth

Station Depth Elevation
Big Goose 0 in 7990 ft
Bear Trap Meadow 0 in 8200 ft
Bald Mountain 0 in 9380 ft
Casper Mountain 0 in 7850 ft
Reno Hill 0 in 8500 ft

Earthquake Activity

City Distance Mag. Time & Date
No recent earthquake activity has been reported nearby.
Minimum magnitude displayed is 2.5.

Coastal Water Temperatures

Place Temperature
No Stations Reporting

Nearby Weather Stations

Station Location Temp. Dew Point Humidity Wind Precip. Elev Updated Type
RAWS ECHETA WY, Gillette, WY 64 °F 41 °F 43% SSE  at  5 mph 0.00 in / hr 4396 ft 11:51 PM MDT MADIS

Show More Stations Show Fewer Stations